sensor_id;sensor_type;location;lat;lon;timestamp;pressure;altitude;pressure_sealevel;temperature;humidity
34124;BME280;13153;52.316;21.166;2023-12-20T00:01:37;99539.06;;;11.50;64.84
34124;BME280;13153;52.316;21.166;2023-12-20T00:04:03;99539.91;;;11.49;64.96
34124;BME280;13153;52.316;21.166;2023-12-20T00:06:30;99538.03;;;11.36;65.27
34124;BME280;13153;52.316;21.166;2023-12-20T00:08:56;99538.03;;;11.36;65.16
34124;BME280;13153;52.316;21.166;2023-12-20T00:11:24;99535.31;;;11.27;65.68
34124;BME280;13153;52.316;21.166;2023-12-20T00:13:49;99530.22;;;11.43;65.18
34124;BME280;13153;52.316;21.166;2023-12-20T00:16:15;99529.25;;;11.34;65.35
34124;BME280;13153;52.316;21.166;2023-12-20T00:18:41;99533.50;;;11.21;66.10
34124;BME280;13153;52.316;21.166;2023-12-20T00:21:06;99526.56;;;11.29;65.49
34124;BME280;13153;52.316;21.166;2023-12-20T00:23:32;99524.75;;;11.25;65.78
34124;BME280;13153;52.316;21.166;2023-12-20T00:25:58;99530.84;;;11.18;65.84
34124;BME280;13153;52.316;21.166;2023-12-20T00:28:24;99531.72;;;11.20;65.69
34124;BME280;13153;52.316;21.166;2023-12-20T00:30:49;99535.28;;;11.23;65.87
34124;BME280;13153;52.316;21.166;2023-12-20T00:33:15;99534.34;;;11.17;65.80
34124;BME280;13153;52.316;21.166;2023-12-20T00:35:41;99522.94;;;11.19;65.92
34124;BME280;13153;52.316;21.166;2023-12-20T00:38:06;99521.22;;;11.23;65.70
34124;BME280;13153;52.316;21.166;2023-12-20T00:40:34;99504.53;;;11.21;65.67
34124;BME280;13153;52.316;21.166;2023-12-20T00:43:00;99513.41;;;11.29;65.36
34124;BME280;13153;52.316;21.166;2023-12-20T00:45:25;99508.28;;;11.44;65.14
34124;BME280;13153;52.316;21.166;2023-12-20T00:47:51;99519.59;;;11.36;65.13
34124;BME280;13153;52.316;21.166;2023-12-20T00:50:17;99508.28;;;11.46;65.13
34124;BME280;13153;52.316;21.166;2023-12-20T00:52:43;99503.88;;;11.43;64.97
34124;BME280;13153;52.316;21.166;2023-12-20T00:55:09;99497.78;;;11.49;64.91
34124;BME280;13153;52.316;21.166;2023-12-20T00:57:34;99496.94;;;11.53;64.67
34124;BME280;13153;52.316;21.166;2023-12-20T01:00:00;99496.06;;;11.54;64.48
34124;BME280;13153;52.316;21.166;2023-12-20T01:02:26;99488.91;;;11.39;64.95
34124;BME280;13153;52.316;21.166;2023-12-20T01:04:52;99492.50;;;11.47;64.98
34124;BME280;13153;52.316;21.166;2023-12-20T01:07:18;99496.81;;;11.41;64.95
34124;BME280;13153;52.316;21.166;2023-12-20T01:09:44;99496.81;;;11.39;65.16
34124;BME280;13153;52.316;21.166;2023-12-20T01:12:10;99488.78;;;11.27;65.48
34124;BME280;13153;52.316;21.166;2023-12-20T01:14:35;99492.44;;;11.40;65.24
34124;BME280;13153;52.316;21.166;2023-12-20T01:17:02;99489.59;;;11.20;65.79
34124;BME280;13153;52.316;21.166;2023-12-20T01:19:27;99479.94;;;11.17;65.78
34124;BME280;13153;52.316;21.166;2023-12-20T01:21:54;99479.16;;;11.29;65.68
34124;BME280;13153;52.316;21.166;2023-12-20T01:24:21;99489.59;;;11.18;65.90
34124;BME280;13153;52.316;21.166;2023-12-20T01:26:46;99489.63;;;11.23;65.70
34124;BME280;13153;52.316;21.166;2023-12-20T01:29:12;99489.69;;;11.28;65.97
34124;BME280;13153;52.316;21.166;2023-12-20T01:31:40;99472.03;;;11.17;65.88
34124;BME280;13153;52.316;21.166;2023-12-20T01:34:08;99472.91;;;11.16;65.88
34124;BME280;13153;52.316;21.166;2023-12-20T01:36:34;99474.69;;;11.20;65.79
34124;BME280;13153;52.316;21.166;2023-12-20T01:39:00;99472.81;;;11.07;66.19
34124;BME280;13153;52.316;21.166;2023-12-20T01:41:25;99458.88;;;11.19;66.17
34124;BME280;13153;52.316;21.166;2023-12-20T01:43:51;99472.16;;;11.33;65.62
34124;BME280;13153;52.316;21.166;2023-12-20T01:46:20;99465.88;;;11.15;66.05
34124;BME280;13153;52.316;21.166;2023-12-20T01:48:46;99471.13;;;11.15;66.06
34124;BME280;13153;52.316;21.166;2023-12-20T01:51:12;99476.50;;;11.28;65.53
34124;BME280;13153;52.316;21.166;2023-12-20T01:53:39;99464.28;;;11.33;65.52
34124;BME280;13153;52.316;21.166;2023-12-20T01:56:07;99460.88;;;11.46;65.51
34124;BME280;13153;52.316;21.166;2023-12-20T01:58:34;99460.94;;;11.58;64.85
34124;BME280;13153;52.316;21.166;2023-12-20T02:01:01;99462.69;;;11.56;64.69
34124;BME280;13153;52.316;21.166;2023-12-20T02:03:26;99463.59;;;11.61;64.36
34124;BME280;13153;52.316;21.166;2023-12-20T02:05:53;99453.13;;;11.69;64.62
34124;BME280;13153;52.316;21.166;2023-12-20T02:08:19;99461.84;;;11.63;64.31
34124;BME280;13153;52.316;21.166;2023-12-20T02:10:44;99456.56;;;11.60;64.73
34124;BME280;13153;52.316;21.166;2023-12-20T02:13:10;99448.66;;;11.58;64.67
34124;BME280;13153;52.316;21.166;2023-12-20T02:15:36;99451.28;;;11.58;64.55
34124;BME280;13153;52.316;21.166;2023-12-20T02:18:07;99445.91;;;11.42;65.02
34124;BME280;13153;52.316;21.166;2023-12-20T02:20:33;99447.69;;;11.44;64.75
34124;BME280;13153;52.316;21.166;2023-12-20T02:22:58;99453.00;;;11.49;64.98
34124;BME280;13153;52.316;21.166;2023-12-20T02:25:24;99445.03;;;11.41;65.08
34124;BME280;13153;52.316;21.166;2023-12-20T02:27:50;99441.63;;;11.53;64.74
34124;BME280;13153;52.316;21.166;2023-12-20T02:30:16;99439.88;;;11.61;64.68
34124;BME280;13153;52.316;21.166;2023-12-20T02:32:42;99436.38;;;11.62;64.36
34124;BME280;13153;52.316;21.166;2023-12-20T02:35:07;99439.03;;;11.65;64.20
34124;BME280;13153;52.316;21.166;2023-12-20T02:37:33;99439.00;;;11.59;64.78
34124;BME280;13153;52.316;21.166;2023-12-20T02:39:59;99430.25;;;11.66;64.52
34124;BME280;13153;52.316;21.166;2023-12-20T02:42:25;99425.91;;;11.70;64.61
34124;BME280;13153;52.316;21.166;2023-12-20T02:44:51;99427.63;;;11.68;64.02
34124;BME280;13153;52.316;21.166;2023-12-20T02:47:16;99424.94;;;11.60;64.61
34124;BME280;13153;52.316;21.166;2023-12-20T02:49:42;99412.69;;;11.64;64.59
34124;BME280;13153;52.316;21.166;2023-12-20T02:52:08;99420.63;;;11.71;64.37
34124;BME280;13153;52.316;21.166;2023-12-20T02:54:34;99413.59;;;11.70;64.26
34124;BME280;13153;52.316;21.166;2023-12-20T02:56:59;99408.34;;;11.72;64.36
34124;BME280;13153;52.316;21.166;2023-12-20T02:59:25;99406.53;;;11.66;64.36
34124;BME280;13153;52.316;21.166;2023-12-20T03:01:51;99402.16;;;11.67;64.46
34124;BME280;13153;52.316;21.166;2023-12-20T03:04:16;99399.56;;;11.74;64.15
34124;BME280;13153;52.316;21.166;2023-12-20T03:06:42;99405.69;;;11.69;63.88
34124;BME280;13153;52.316;21.166;2023-12-20T03:09:08;99406.53;;;11.63;64.18
34124;BME280;13153;52.316;21.166;2023-12-20T03:11:34;99403.91;;;11.65;64.33
34124;BME280;13153;52.316;21.166;2023-12-20T03:13:59;99403.91;;;11.66;63.65
34124;BME280;13153;52.316;21.166;2023-12-20T03:16:25;99393.41;;;11.71;63.74
34124;BME280;13153;52.316;21.166;2023-12-20T03:18:51;99397.78;;;11.70;64.00
34124;BME280;13153;52.316;21.166;2023-12-20T03:21:16;99394.22;;;11.64;64.01
34124;BME280;13153;52.316;21.166;2023-12-20T03:23:42;99399.50;;;11.65;64.04
34124;BME280;13153;52.316;21.166;2023-12-20T03:26:09;99388.09;;;11.66;63.88
34124;BME280;13153;52.316;21.166;2023-12-20T03:28:36;99399.53;;;11.70;63.79
34124;BME280;13153;52.316;21.166;2023-12-20T03:31:03;99417.13;;;11.72;63.99
34124;BME280;13153;52.316;21.166;2023-12-20T03:33:29;99416.19;;;11.63;64.13
34124;BME280;13153;52.316;21.166;2023-12-20T03:35:55;99411.75;;;11.51;64.46
34124;BME280;13153;52.316;21.166;2023-12-20T03:38:21;99401.13;;;11.39;64.98
34124;BME280;13153;52.316;21.166;2023-12-20T03:40:50;99392.44;;;11.52;64.69
34124;BME280;13153;52.316;21.166;2023-12-20T03:43:16;99400.34;;;11.55;64.51
34124;BME280;13153;52.316;21.166;2023-12-20T03:45:42;99388.03;;;11.57;64.56
34124;BME280;13153;52.316;21.166;2023-12-20T03:48:08;99386.31;;;11.54;64.48
34124;BME280;13153;52.316;21.166;2023-12-20T03:50:34;99396.75;;;11.41;65.05
34124;BME280;13153;52.316;21.166;2023-12-20T03:53:01;99401.19;;;11.46;65.00
34124;BME280;13153;52.316;21.166;2023-12-20T03:55:26;99393.31;;;11.54;64.80
34124;BME280;13153;52.316;21.166;2023-12-20T03:57:52;99393.31;;;11.54;64.81
34124;BME280;13153;52.316;21.166;2023-12-20T04:00:18;99399.44;;;11.48;64.80
34124;BME280;13153;52.316;21.166;2023-12-20T04:02:44;99399.41;;;11.47;65.00
34124;BME280;13153;52.316;21.166;2023-12-20T04:05:10;99395.03;;;11.49;64.86
34124;BME280;13153;52.316;21.166;2023-12-20T04:07:36;99388.03;;;11.51;64.78
34124;BME280;13153;52.316;21.166;2023-12-20T04:10:03;99383.66;;;11.57;64.60
34124;BME280;13153;52.316;21.166;2023-12-20T04:12:32;99396.84;;;11.62;64.66
34124;BME280;13153;52.316;21.166;2023-12-20T04:14:58;99400.38;;;11.64;64.36
34124;BME280;13153;52.316;21.166;2023-12-20T04:17:24;99389.84;;;11.66;64.15
34124;BME280;13153;52.316;21.166;2023-12-20T04:19:50;99381.06;;;11.62;64.14
34124;BME280;13153;52.316;21.166;2023-12-20T04:22:18;99383.69;;;11.62;64.27
34124;BME280;13153;52.316;21.166;2023-12-20T04:24:44;99386.34;;;11.67;64.00
34124;BME280;13153;52.316;21.166;2023-12-20T04:27:10;99389.88;;;11.67;64.24
34124;BME280;13153;52.316;21.166;2023-12-20T04:29:36;99391.63;;;11.70;64.20
34124;BME280;13153;52.316;21.166;2023-12-20T04:32:02;99380.19;;;11.66;64.12
34124;BME280;13153;52.316;21.166;2023-12-20T04:34:28;99387.22;;;11.64;64.32
34124;BME280;13153;52.316;21.166;2023-12-20T04:36:54;99395.13;;;11.64;64.37
34124;BME280;13153;52.316;21.166;2023-12-20T04:39:20;99388.13;;;11.68;64.24
34124;BME280;13153;52.316;21.166;2023-12-20T04:41:45;99381.06;;;11.64;64.28
34124;BME280;13153;52.316;21.166;2023-12-20T04:44:13;99391.56;;;11.59;64.43
34124;BME280;13153;52.316;21.166;2023-12-20T04:46:39;99395.09;;;11.55;64.43
34124;BME280;13153;52.316;21.166;2023-12-20T04:49:05;99403.00;;;11.59;64.71
34124;BME280;13153;52.316;21.166;2023-12-20T04:51:33;99393.38;;;11.65;64.39
34124;BME280;13153;52.316;21.166;2023-12-20T04:54:00;99392.50;;;11.69;64.31
34124;BME280;13153;52.316;21.166;2023-12-20T04:56:25;99388.13;;;11.68;64.33
34124;BME280;13153;52.316;21.166;2023-12-20T04:58:51;99386.38;;;11.73;64.18
34124;BME280;13153;52.316;21.166;2023-12-20T05:01:17;99394.25;;;11.68;64.37
34124;BME280;13153;52.316;21.166;2023-12-20T05:03:43;99391.59;;;11.61;64.46
34124;BME280;13153;52.316;21.166;2023-12-20T05:06:10;99395.13;;;11.66;64.38
34124;BME280;13153;52.316;21.166;2023-12-20T05:08:36;99385.47;;;11.66;64.10
34124;BME280;13153;52.316;21.166;2023-12-20T05:11:02;99379.31;;;11.66;64.02
34124;BME280;13153;52.316;21.166;2023-12-20T05:13:28;99374.91;;;11.63;64.03
34124;BME280;13153;52.316;21.166;2023-12-20T05:15:54;99381.94;;;11.66;64.08
34124;BME280;13153;52.316;21.166;2023-12-20T05:18:21;99375.78;;;11.61;64.27
34124;BME280;13153;52.316;21.166;2023-12-20T05:20:47;99371.41;;;11.64;64.02
34124;BME280;13153;52.316;21.166;2023-12-20T05:23:13;99365.25;;;11.64;64.05
34124;BME280;13153;52.316;21.166;2023-12-20T05:25:39;99362.63;;;11.65;63.87
34124;BME280;13153;52.316;21.166;2023-12-20T05:28:05;99368.78;;;11.64;63.69
34124;BME280;13153;52.316;21.166;2023-12-20T05:30:31;99371.38;;;11.58;63.88
34124;BME280;13153;52.316;21.166;2023-12-20T05:32:57;99367.00;;;11.62;63.89
34124;BME280;13153;52.316;21.166;2023-12-20T05:35:23;99365.22;;;11.53;63.91
34124;BME280;13153;52.316;21.166;2023-12-20T05:37:49;99360.84;;;11.55;64.03
34124;BME280;13153;52.316;21.166;2023-12-20T05:40:15;99366.09;;;11.59;63.74
34124;BME280;13153;52.316;21.166;2023-12-20T05:42:41;99360.81;;;11.58;63.82
34124;BME280;13153;52.316;21.166;2023-12-20T05:45:07;99351.16;;;11.58;63.63
34124;BME280;13153;52.316;21.166;2023-12-20T05:47:33;99363.47;;;11.58;63.73
34124;BME280;13153;52.316;21.166;2023-12-20T05:49:59;99359.97;;;11.62;63.80
34124;BME280;13153;52.316;21.166;2023-12-20T05:52:24;99359.13;;;11.65;63.63
34124;BME280;13153;52.316;21.166;2023-12-20T05:54:50;99355.56;;;11.55;63.78
34124;BME280;13153;52.316;21.166;2023-12-20T05:57:16;99355.56;;;11.55;63.96
34124;BME280;13153;52.316;21.166;2023-12-20T05:59:42;99354.69;;;11.53;64.01
34124;BME280;13153;52.316;21.166;2023-12-20T06:02:07;99355.59;;;11.61;63.80
34124;BME280;13153;52.316;21.166;2023-12-20T06:04:33;99359.97;;;11.61;63.86
34124;BME280;13153;52.316;21.166;2023-12-20T06:06:59;99356.44;;;11.54;64.06
34124;BME280;13153;52.316;21.166;2023-12-20T06:09:27;99356.44;;;11.54;64.09
34124;BME280;13153;52.316;21.166;2023-12-20T06:11:52;99361.72;;;11.54;63.61
34124;BME280;13153;52.316;21.166;2023-12-20T06:14:18;99357.31;;;11.54;63.84
34124;BME280;13153;52.316;21.166;2023-12-20T06:16:45;99370.44;;;11.45;64.17
34124;BME280;13153;52.316;21.166;2023-12-20T06:19:11;99362.53;;;11.44;64.43
34124;BME280;13153;52.316;21.166;2023-12-20T06:21:37;99365.19;;;11.47;64.29
34124;BME280;13153;52.316;21.166;2023-12-20T06:24:03;99362.59;;;11.53;64.21
34124;BME280;13153;52.316;21.166;2023-12-20T06:26:29;99362.59;;;11.53;64.03
34124;BME280;13153;52.316;21.166;2023-12-20T06:28:55;99359.06;;;11.54;64.06
34124;BME280;13153;52.316;21.166;2023-12-20T06:31:21;99366.97;;;11.55;63.97
34124;BME280;13153;52.316;21.166;2023-12-20T06:33:46;99369.63;;;11.58;64.13
34124;BME280;13153;52.316;21.166;2023-12-20T06:36:13;99366.97;;;11.51;64.26
34124;BME280;13153;52.316;21.166;2023-12-20T06:38:39;99367.84;;;11.59;64.00
34124;BME280;13153;52.316;21.166;2023-12-20T06:41:05;99370.53;;;11.64;63.86
34124;BME280;13153;52.316;21.166;2023-12-20T06:43:31;99366.09;;;11.55;63.89
34124;BME280;13153;52.316;21.166;2023-12-20T06:45:58;99372.25;;;11.54;63.86
34124;BME280;13153;52.316;21.166;2023-12-20T06:48:24;99365.22;;;11.53;64.07
34124;BME280;13153;52.316;21.166;2023-12-20T06:50:49;99373.09;;;11.56;63.73
34124;BME280;13153;52.316;21.166;2023-12-20T06:53:15;99370.47;;;11.56;63.69
34124;BME280;13153;52.316;21.166;2023-12-20T06:55:42;99370.47;;;11.48;64.17
34124;BME280;13153;52.316;21.166;2023-12-20T06:58:07;99374.00;;;11.56;63.91
34124;BME280;13153;52.316;21.166;2023-12-20T07:00:34;99379.09;;;11.29;64.55
34124;BME280;13153;52.316;21.166;2023-12-20T07:03:00;99373.09;;;11.47;64.27
34124;BME280;13153;52.316;21.166;2023-12-20T07:05:26;99376.59;;;11.46;64.40
34124;BME280;13153;52.316;21.166;2023-12-20T07:07:52;99375.75;;;11.53;63.97
34124;BME280;13153;52.316;21.166;2023-12-20T07:10:17;99366.97;;;11.55;63.74
34124;BME280;13153;52.316;21.166;2023-12-20T07:12:43;99370.50;;;11.59;63.92
34124;BME280;13153;52.316;21.166;2023-12-20T07:15:10;99374.03;;;11.63;63.75
34124;BME280;13153;52.316;21.166;2023-12-20T07:17:35;99371.38;;;11.55;64.08
34124;BME280;13153;52.316;21.166;2023-12-20T07:20:01;99371.31;;;11.43;64.07
34124;BME280;13153;52.316;21.166;2023-12-20T07:22:30;99374.81;;;11.43;64.33
34124;BME280;13153;52.316;21.166;2023-12-20T07:24:59;99376.59;;;11.47;64.15
34124;BME280;13153;52.316;21.166;2023-12-20T07:27:26;99377.31;;;11.25;64.59
34124;BME280;13153;52.316;21.166;2023-12-20T07:29:51;99379.22;;;11.44;64.35
34124;BME280;13153;52.316;21.166;2023-12-20T07:32:17;99373.13;;;11.53;64.08
34124;BME280;13153;52.316;21.166;2023-12-20T07:34:43;99378.38;;;11.57;64.10
34124;BME280;13153;52.316;21.166;2023-12-20T07:37:09;99380.16;;;11.60;63.70
34124;BME280;13153;52.316;21.166;2023-12-20T07:39:41;99372.28;;;11.65;63.57
34124;BME280;13153;52.316;21.166;2023-12-20T07:42:09;99377.53;;;11.63;63.98
34124;BME280;13153;52.316;21.166;2023-12-20T07:44:35;99375.75;;;11.56;63.53
34124;BME280;13153;52.316;21.166;2023-12-20T07:47:01;99381.03;;;11.57;64.07
34124;BME280;13153;52.316;21.166;2023-12-20T07:49:28;99374.03;;;11.63;63.82
34124;BME280;13153;52.316;21.166;2023-12-20T07:51:53;99378.38;;;11.57;63.77
34124;BME280;13153;52.316;21.166;2023-12-20T07:54:19;99370.53;;;11.65;63.61
34124;BME280;13153;52.316;21.166;2023-12-20T07:56:46;99373.16;;;11.65;63.52
34124;BME280;13153;52.316;21.166;2023-12-20T07:59:12;99371.44;;;11.67;63.52
34124;BME280;13153;52.316;21.166;2023-12-20T08:01:38;99369.63;;;11.63;63.64
34124;BME280;13153;52.316;21.166;2023-12-20T08:04:04;99364.41;;;11.66;63.53
34124;BME280;13153;52.316;21.166;2023-12-20T08:06:29;99362.59;;;11.62;63.89
34124;BME280;13153;52.316;21.166;2023-12-20T08:08:55;99364.34;;;11.58;63.96
34124;BME280;13153;52.316;21.166;2023-12-20T08:11:21;99365.25;;;11.65;63.81
34124;BME280;13153;52.316;21.166;2023-12-20T08:13:47;99376.69;;;11.67;63.50
34124;BME280;13153;52.316;21.166;2023-12-20T08:16:12;99364.44;;;11.72;63.66
34124;BME280;13153;52.316;21.166;2023-12-20T08:18:39;99369.66;;;11.66;63.94
34124;BME280;13153;52.316;21.166;2023-12-20T08:21:06;99364.34;;;11.60;64.28
34124;BME280;13153;52.316;21.166;2023-12-20T08:23:34;99359.13;;;11.66;64.16
34124;BME280;13153;52.316;21.166;2023-12-20T08:26:05;99365.31;;;11.73;63.64
34124;BME280;13153;52.316;21.166;2023-12-20T08:28:31;99363.56;;;11.76;63.90
34124;BME280;13153;52.316;21.166;2023-12-20T08:30:57;99355.75;;;11.84;63.60
34124;BME280;13153;52.316;21.166;2023-12-20T08:33:23;99356.56;;;11.77;63.48
34124;BME280;13153;52.316;21.166;2023-12-20T08:35:48;99355.72;;;11.79;63.74
34124;BME280;13153;52.316;21.166;2023-12-20T08:38:14;99353.97;;;11.84;63.64
34124;BME280;13153;52.316;21.166;2023-12-20T08:40:40;99357.34;;;11.62;64.33
34124;BME280;13153;52.316;21.166;2023-12-20T08:43:06;99356.44;;;11.58;64.16
34124;BME280;13153;52.316;21.166;2023-12-20T08:45:31;99354.69;;;11.59;64.39
34124;BME280;13153;52.316;21.166;2023-12-20T08:47:57;99348.63;;;11.72;63.80
34124;BME280;13153;52.316;21.166;2023-12-20T08:50:23;99353.03;;;11.75;63.56
34124;BME280;13153;52.316;21.166;2023-12-20T08:52:48;99357.41;;;11.71;63.84
34124;BME280;13153;52.316;21.166;2023-12-20T08:55:14;99358.38;;;11.82;63.70
34124;BME280;13153;52.316;21.166;2023-12-20T08:57:42;99363.66;;;11.85;63.45
34124;BME280;13153;52.316;21.166;2023-12-20T09:00:08;99353.06;;;11.78;63.40
34124;BME280;13153;52.316;21.166;2023-12-20T09:02:34;99352.13;;;11.74;63.78
34124;BME280;13153;52.316;21.166;2023-12-20T09:05:02;99345.97;;;11.69;63.94
34124;BME280;13153;52.316;21.166;2023-12-20T09:07:28;99349.44;;;11.62;64.09
34124;BME280;13153;52.316;21.166;2023-12-20T09:09:58;99338.97;;;11.73;63.88
34124;BME280;13153;52.316;21.166;2023-12-20T09:12:24;99338.97;;;11.74;64.06
34124;BME280;13153;52.316;21.166;2023-12-20T09:14:51;99336.25;;;11.59;64.15
34124;BME280;13153;52.316;21.166;2023-12-20T09:17:18;99334.53;;;11.69;64.00
34124;BME280;13153;52.316;21.166;2023-12-20T09:19:45;99329.25;;;11.67;63.93
34124;BME280;13153;52.316;21.166;2023-12-20T09:22:11;99324.81;;;11.55;63.84
34124;BME280;13153;52.316;21.166;2023-12-20T09:24:38;99325.72;;;11.59;64.03
34124;BME280;13153;52.316;21.166;2023-12-20T09:27:07;99326.59;;;11.53;64.28
34124;BME280;13153;52.316;21.166;2023-12-20T09:29:32;99326.56;;;11.50;64.24
34124;BME280;13153;52.316;21.166;2023-12-20T09:31:58;99320.41;;;11.47;64.68
34124;BME280;13153;52.316;21.166;2023-12-20T09:34:24;99318.66;;;11.49;64.47
34124;BME280;13153;52.316;21.166;2023-12-20T09:36:51;99309.88;;;11.50;64.62
34124;BME280;13153;52.316;21.166;2023-12-20T09:39:19;99314.31;;;11.63;64.03
34124;BME280;13153;52.316;21.166;2023-12-20T09:42:01;99301.13;;;11.60;64.34
34124;BME280;13153;52.316;21.166;2023-12-20T09:44:28;99308.19;;;11.67;63.75
34124;BME280;13153;52.316;21.166;2023-12-20T09:46:55;99299.44;;;11.71;64.08
34124;BME280;13153;52.316;21.166;2023-12-20T09:49:22;99306.44;;;11.66;64.39
34124;BME280;13153;52.316;21.166;2023-12-20T09:51:50;99297.66;;;11.69;64.14
34124;BME280;13153;52.316;21.166;2023-12-20T09:54:18;99295.88;;;11.66;63.90
34124;BME280;13153;52.316;21.166;2023-12-20T09:56:47;99297.63;;;11.63;64.25
34124;BME280;13153;52.316;21.166;2023-12-20T09:59:14;99303.81;;;11.72;64.12
34124;BME280;13153;52.316;21.166;2023-12-20T10:01:41;99288.88;;;11.70;64.39
34124;BME280;13153;52.316;21.166;2023-12-20T10:04:09;99293.25;;;11.66;64.18
34124;BME280;13153;52.316;21.166;2023-12-20T10:06:44;99291.53;;;11.73;64.09
34124;BME280;13153;52.316;21.166;2023-12-20T10:09:12;99283.72;;;11.86;63.73
34124;BME280;13153;52.316;21.166;2023-12-20T10:11:39;99287.25;;;11.96;63.17
34124;BME280;13153;52.316;21.166;2023-12-20T10:14:06;99295.16;;;11.96;63.42
34124;BME280;13153;52.316;21.166;2023-12-20T10:16:33;99289.91;;;11.96;63.13
34124;BME280;13153;52.316;21.166;2023-12-20T10:19:00;99293.38;;;11.84;63.47
34124;BME280;13153;52.316;21.166;2023-12-20T10:21:29;99285.47;;;11.89;63.58
34124;BME280;13153;52.316;21.166;2023-12-20T10:23:57;99287.22;;;11.82;63.68
34124;BME280;13153;52.316;21.166;2023-12-20T10:26:25;99283.69;;;11.80;63.66
34124;BME280;13153;52.316;21.166;2023-12-20T10:28:59;99292.50;;;11.87;63.62
34124;BME280;13153;52.316;21.166;2023-12-20T10:31:32;99278.41;;;11.80;63.27
34124;BME280;13153;52.316;21.166;2023-12-20T10:34:02;99282.72;;;11.68;63.74
34124;BME280;13153;52.316;21.166;2023-12-20T10:36:34;99281.06;;;11.82;63.45
34124;BME280;13153;52.316;21.166;2023-12-20T10:39:01;99271.41;;;11.85;63.27
34124;BME280;13153;52.316;21.166;2023-12-20T10:41:32;99268.78;;;11.85;63.58
34124;BME280;13153;52.316;21.166;2023-12-20T10:44:03;99262.63;;;11.85;63.56
34124;BME280;13153;52.316;21.166;2023-12-20T10:46:34;99271.41;;;11.88;63.43
34124;BME280;13153;52.316;21.166;2023-12-20T10:49:02;99274.91;;;11.84;63.31
34124;BME280;13153;52.316;21.166;2023-12-20T10:51:31;99273.94;;;11.72;64.01
34124;BME280;13153;52.316;21.166;2023-12-20T10:53:59;99281.81;;;11.53;64.61
34124;BME280;13153;52.316;21.166;2023-12-20T10:56:31;99281.84;;;11.70;64.18
34124;BME280;13153;52.316;21.166;2023-12-20T10:59:01;99266.00;;;11.61;64.16
34124;BME280;13153;52.316;21.166;2023-12-20T11:01:29;99278.41;;;11.79;64.03
34124;BME280;13153;52.316;21.166;2023-12-20T11:03:55;99260.00;;;11.86;63.48
34124;BME280;13153;52.316;21.166;2023-12-20T11:06:40;99255.50;;;11.67;63.64
34124;BME280;13153;52.316;21.166;2023-12-20T11:09:22;99253.72;;;11.66;63.97
34124;BME280;13153;52.316;21.166;2023-12-20T11:12:32;99244.94;;;11.61;63.90
34124;BME280;13153;52.316;21.166;2023-12-20T11:15:02;99243.16;;;11.51;64.47
34124;BME280;13153;52.316;21.166;2023-12-20T11:17:31;99241.41;;;11.50;64.54
34124;BME280;13153;52.316;21.166;2023-12-20T11:22:30;99235.31;;;11.72;64.25
34124;BME280;13153;52.316;21.166;2023-12-20T11:25:07;99230.13;;;11.92;63.71
34124;BME280;13153;52.316;21.166;2023-12-20T11:27:40;99216.09;;;11.98;63.57
34124;BME280;13153;52.316;21.166;2023-12-20T11:30:07;99215.22;;;12.03;63.16
34124;BME280;13153;52.316;21.166;2023-12-20T11:32:37;99214.34;;;12.07;63.08
34124;BME280;13153;52.316;21.166;2023-12-20T11:37:38;99206.44;;;11.97;62.91
34124;BME280;13153;52.316;21.166;2023-12-20T11:40:12;99205.44;;;11.66;63.64
34124;BME280;13153;52.316;21.166;2023-12-20T11:42:41;99209.81;;;11.67;63.71
34124;BME280;13153;52.316;21.166;2023-12-20T11:45:14;99202.81;;;11.70;63.72
34124;BME280;13153;52.316;21.166;2023-12-20T11:47:47;99207.19;;;11.71;63.75
34124;BME280;13153;52.316;21.166;2023-12-20T11:50:16;99200.25;;;11.85;63.44
34124;BME280;13153;52.316;21.166;2023-12-20T11:52:41;99197.63;;;11.92;62.95
34124;BME280;13153;52.316;21.166;2023-12-20T11:55:07;99191.50;;;11.96;63.03
34124;BME280;13153;52.316;21.166;2023-12-20T11:57:34;99187.88;;;11.74;63.37
34124;BME280;13153;52.316;21.166;2023-12-20T12:00:02;99186.13;;;11.71;63.60
34124;BME280;13153;52.316;21.166;2023-12-20T12:02:28;99192.31;;;11.79;63.70
34124;BME280;13153;52.316;21.166;2023-12-20T12:04:54;99187.94;;;11.86;63.54
34124;BME280;13153;52.316;21.166;2023-12-20T12:07:21;99187.09;;;11.90;63.30
34124;BME280;13153;52.316;21.166;2023-12-20T12:09:47;99184.47;;;11.95;62.79
34124;BME280;13153;52.316;21.166;2023-12-20T12:12:14;99173.91;;;11.87;63.36
34124;BME280;13153;52.316;21.166;2023-12-20T12:14:40;99178.22;;;11.70;63.85
34124;BME280;13153;52.316;21.166;2023-12-20T12:17:15;99178.28;;;11.80;63.59
34124;BME280;13153;52.316;21.166;2023-12-20T12:19:42;99178.31;;;11.93;63.16
34124;BME280;13153;52.316;21.166;2023-12-20T12:22:09;99165.03;;;11.64;63.36
34124;BME280;13153;52.316;21.166;2023-12-20T12:24:46;99168.50;;;11.46;64.17
34124;BME280;13153;52.316;21.166;2023-12-20T12:27:13;99158.00;;;11.59;63.61
34124;BME280;13153;52.316;21.166;2023-12-20T12:29:39;99156.25;;;11.69;63.37
34124;BME280;13153;52.316;21.166;2023-12-20T12:32:07;99156.25;;;11.69;63.45
34124;BME280;13153;52.316;21.166;2023-12-20T12:34:36;99146.59;;;11.71;63.33
34124;BME280;13153;52.316;21.166;2023-12-20T12:37:04;99150.13;;;11.72;62.90
34124;BME280;13153;52.316;21.166;2023-12-20T12:39:30;99156.22;;;11.42;63.79
34124;BME280;13153;52.316;21.166;2023-12-20T12:41:56;99148.31;;;11.45;63.68
34124;BME280;13153;52.316;21.166;2023-12-20T12:44:22;99154.47;;;11.44;63.70
34124;BME280;13153;52.316;21.166;2023-12-20T12:46:51;99160.63;;;11.50;63.17
34124;BME280;13153;52.316;21.166;2023-12-20T12:49:19;99155.38;;;11.52;63.00
34124;BME280;13153;52.316;21.166;2023-12-20T12:51:46;99153.59;;;11.60;63.05
34124;BME280;13153;52.316;21.166;2023-12-20T12:54:12;99144.75;;;11.31;63.25